Terminal Aerodrome Forecast
Issued by NWS

Current Version | Previous Version | Text Only | Print | Product List | Glossary On
Versions: 1 2 3 4 5 6 7 8 9 10 11 12 13
000
FTUS45 KGGW 252328
TAFOLF
TAF
KOLF 252328Z 2600/2624 34007KT P6SM SCT100
     FM260200 05007KT P6SM SKC
     FM261300 09006KT P6SM SKC
     FM261700 14012KT P6SM FEW220=

USA.gov is the U.S. government's official web portal to all federal, state and local government web resources and services.